sensor_id;sensor_type;location;lat;lon;timestamp;temperature;humidity
22153;DHT22;11242;50.536;12.688;2023-06-10T00:00:43;11.60;99.90
22153;DHT22;11242;50.536;12.688;2023-06-10T00:03:09;11.60;99.90
22153;DHT22;11242;50.536;12.688;2023-06-10T00:05:37;11.60;99.90
22153;DHT22;11242;50.536;12.688;2023-06-10T00:08:08;11.60;99.90
22153;DHT22;11242;50.536;12.688;2023-06-10T00:10:35;11.60;99.90
22153;DHT22;11242;50.536;12.688;2023-06-10T00:13:05;11.60;99.90
22153;DHT22;11242;50.536;12.688;2023-06-10T00:15:33;11.60;99.90
22153;DHT22;11242;50.536;12.688;2023-06-10T00:17:58;11.60;99.90
22153;DHT22;11242;50.536;12.688;2023-06-10T00:20:24;11.50;99.90
22153;DHT22;11242;50.536;12.688;2023-06-10T00:22:50;11.50;99.90
22153;DHT22;11242;50.536;12.688;2023-06-10T00:25:16;11.50;99.90
22153;DHT22;11242;50.536;12.688;2023-06-10T00:27:42;11.40;99.90
22153;DHT22;11242;50.536;12.688;2023-06-10T00:30:09;11.40;99.90
22153;DHT22;11242;50.536;12.688;2023-06-10T00:32:35;11.40;99.90
22153;DHT22;11242;50.536;12.688;2023-06-10T00:35:05;11.40;99.90
22153;DHT22;11242;50.536;12.688;2023-06-10T00:37:34;11.40;99.90
22153;DHT22;11242;50.536;12.688;2023-06-10T00:40:04;11.50;99.90
22153;DHT22;11242;50.536;12.688;2023-06-10T00:42:31;11.60;99.90
22153;DHT22;11242;50.536;12.688;2023-06-10T00:44:57;11.70;99.90
22153;DHT22;11242;50.536;12.688;2023-06-10T00:47:23;11.70;99.90
22153;DHT22;11242;50.536;12.688;2023-06-10T00:49:49;11.60;99.90
22153;DHT22;11242;50.536;12.688;2023-06-10T00:52:16;11.50;99.90
22153;DHT22;11242;50.536;12.688;2023-06-10T00:54:44;11.40;99.90
22153;DHT22;11242;50.536;12.688;2023-06-10T00:57:10;11.40;99.90
22153;DHT22;11242;50.536;12.688;2023-06-10T00:59:36;11.40;99.90
22153;DHT22;11242;50.536;12.688;2023-06-10T01:02:03;11.40;99.90
22153;DHT22;11242;50.536;12.688;2023-06-10T01:04:29;11.40;99.90
22153;DHT22;11242;50.536;12.688;2023-06-10T01:10:51;11.40;99.90
22153;DHT22;11242;50.536;12.688;2023-06-10T01:13:23;11.50;99.90
22153;DHT22;11242;50.536;12.688;2023-06-10T01:15:54;11.50;99.90
22153;DHT22;11242;50.536;12.688;2023-06-10T01:18:20;11.50;99.90
22153;DHT22;11242;50.536;12.688;2023-06-10T01:20:47;11.40;99.90
22153;DHT22;11242;50.536;12.688;2023-06-10T01:23:14;11.30;99.90
22153;DHT22;11242;50.536;12.688;2023-06-10T01:25:53;11.30;99.90
22153;DHT22;11242;50.536;12.688;2023-06-10T01:28:48;11.20;99.90
22153;DHT22;11242;50.536;12.688;2023-06-10T01:31:32;11.20;99.90
22153;DHT22;11242;50.536;12.688;2023-06-10T01:34:04;11.10;99.90
22153;DHT22;11242;50.536;12.688;2023-06-10T01:36:33;11.10;99.90
22153;DHT22;11242;50.536;12.688;2023-06-10T01:39:00;11.00;99.90
22153;DHT22;11242;50.536;12.688;2023-06-10T01:41:28;11.00;99.90
22153;DHT22;11242;50.536;12.688;2023-06-10T01:43:54;11.00;99.90
22153;DHT22;11242;50.536;12.688;2023-06-10T01:46:20;11.00;99.90
22153;DHT22;11242;50.536;12.688;2023-06-10T01:48:47;10.90;99.90
22153;DHT22;11242;50.536;12.688;2023-06-10T01:51:15;10.90;99.90
22153;DHT22;11242;50.536;12.688;2023-06-10T01:53:41;10.90;99.90
22153;DHT22;11242;50.536;12.688;2023-06-10T01:56:07;10.90;99.90
22153;DHT22;11242;50.536;12.688;2023-06-10T01:58:32;10.80;99.90
22153;DHT22;11242;50.536;12.688;2023-06-10T02:00:58;10.80;99.90
22153;DHT22;11242;50.536;12.688;2023-06-10T02:03:23;10.80;99.90
22153;DHT22;11242;50.536;12.688;2023-06-10T02:05:49;10.70;99.90
22153;DHT22;11242;50.536;12.688;2023-06-10T02:08:15;10.70;99.90
22153;DHT22;11242;50.536;12.688;2023-06-10T02:10:41;10.60;99.90
22153;DHT22;11242;50.536;12.688;2023-06-10T02:13:06;10.50;99.90
22153;DHT22;11242;50.536;12.688;2023-06-10T02:15:33;10.50;99.90
22153;DHT22;11242;50.536;12.688;2023-06-10T02:17:59;10.50;99.90
22153;DHT22;11242;50.536;12.688;2023-06-10T02:20:25;10.50;99.90
22153;DHT22;11242;50.536;12.688;2023-06-10T02:22:50;10.50;99.90
22153;DHT22;11242;50.536;12.688;2023-06-10T02:25:16;10.40;99.90
22153;DHT22;11242;50.536;12.688;2023-06-10T02:30:42;10.30;99.90
22153;DHT22;11242;50.536;12.688;2023-06-10T02:33:08;10.30;99.90
22153;DHT22;11242;50.536;12.688;2023-06-10T02:35:41;10.30;99.90
22153;DHT22;11242;50.536;12.688;2023-06-10T02:38:07;10.20;99.90
22153;DHT22;11242;50.536;12.688;2023-06-10T02:40:34;10.20;99.90
22153;DHT22;11242;50.536;12.688;2023-06-10T02:43:00;10.20;99.90
22153;DHT22;11242;50.536;12.688;2023-06-10T02:45:26;10.20;99.90
22153;DHT22;11242;50.536;12.688;2023-06-10T02:47:52;10.20;99.90
22153;DHT22;11242;50.536;12.688;2023-06-10T02:50:18;10.20;99.90
22153;DHT22;11242;50.536;12.688;2023-06-10T02:52:54;10.10;99.90
22153;DHT22;11242;50.536;12.688;2023-06-10T02:55:21;10.20;99.90
22153;DHT22;11242;50.536;12.688;2023-06-10T02:57:52;10.30;99.90
22153;DHT22;11242;50.536;12.688;2023-06-10T03:00:20;10.40;99.90
22153;DHT22;11242;50.536;12.688;2023-06-10T03:02:47;10.30;99.90
22153;DHT22;11242;50.536;12.688;2023-06-10T03:05:14;10.40;99.90
22153;DHT22;11242;50.536;12.688;2023-06-10T03:07:44;10.40;99.90
22153;DHT22;11242;50.536;12.688;2023-06-10T03:10:15;10.40;99.90
22153;DHT22;11242;50.536;12.688;2023-06-10T03:12:40;10.30;99.90
22153;DHT22;11242;50.536;12.688;2023-06-10T03:15:07;10.30;99.90
22153;DHT22;11242;50.536;12.688;2023-06-10T03:17:33;10.30;99.90
22153;DHT22;11242;50.536;12.688;2023-06-10T03:19:59;10.30;99.90
22153;DHT22;11242;50.536;12.688;2023-06-10T03:22:25;10.30;99.90
22153;DHT22;11242;50.536;12.688;2023-06-10T03:25:05;10.30;99.90
22153;DHT22;11242;50.536;12.688;2023-06-10T03:27:33;10.40;99.90
22153;DHT22;11242;50.536;12.688;2023-06-10T03:30:03;10.50;99.90
22153;DHT22;11242;50.536;12.688;2023-06-10T03:32:29;10.50;99.90
22153;DHT22;11242;50.536;12.688;2023-06-10T03:34:54;10.50;99.90
22153;DHT22;11242;50.536;12.688;2023-06-10T03:37:25;10.60;99.90
22153;DHT22;11242;50.536;12.688;2023-06-10T03:39:51;10.70;99.90
22153;DHT22;11242;50.536;12.688;2023-06-10T03:42:16;10.80;99.90
22153;DHT22;11242;50.536;12.688;2023-06-10T03:44:42;10.90;99.90
22153;DHT22;11242;50.536;12.688;2023-06-10T03:47:08;11.00;99.90
22153;DHT22;11242;50.536;12.688;2023-06-10T03:49:36;11.00;99.90
22153;DHT22;11242;50.536;12.688;2023-06-10T03:52:02;11.10;99.90
22153;DHT22;11242;50.536;12.688;2023-06-10T03:54:28;11.20;99.90
22153;DHT22;11242;50.536;12.688;2023-06-10T03:56:54;11.30;99.90
22153;DHT22;11242;50.536;12.688;2023-06-10T03:59:19;11.50;99.90
22153;DHT22;11242;50.536;12.688;2023-06-10T04:01:45;11.60;99.90
22153;DHT22;11242;50.536;12.688;2023-06-10T04:04:14;11.70;99.90
22153;DHT22;11242;50.536;12.688;2023-06-10T04:06:41;11.90;99.90
22153;DHT22;11242;50.536;12.688;2023-06-10T04:09:09;11.90;99.90
22153;DHT22;11242;50.536;12.688;2023-06-10T04:11:36;12.20;99.90
22153;DHT22;11242;50.536;12.688;2023-06-10T04:14:02;13.00;99.90
22153;DHT22;11242;50.536;12.688;2023-06-10T04:16:28;14.20;99.90
22153;DHT22;11242;50.536;12.688;2023-06-10T04:18:54;15.80;99.90
22153;DHT22;11242;50.536;12.688;2023-06-10T04:21:21;17.40;99.90
22153;DHT22;11242;50.536;12.688;2023-06-10T04:23:47;18.20;99.90
22153;DHT22;11242;50.536;12.688;2023-06-10T04:26:14;19.30;99.90
22153;DHT22;11242;50.536;12.688;2023-06-10T04:28:39;20.00;99.90
22153;DHT22;11242;50.536;12.688;2023-06-10T04:31:05;20.40;99.90
22153;DHT22;11242;50.536;12.688;2023-06-10T04:33:31;21.00;99.90
22153;DHT22;11242;50.536;12.688;2023-06-10T04:35:58;21.40;99.90
22153;DHT22;11242;50.536;12.688;2023-06-10T04:38:27;22.50;99.90
22153;DHT22;11242;50.536;12.688;2023-06-10T04:40:54;23.10;99.90
22153;DHT22;11242;50.536;12.688;2023-06-10T04:43:21;23.70;99.90
22153;DHT22;11242;50.536;12.688;2023-06-10T04:45:47;24.50;96.40
22153;DHT22;11242;50.536;12.688;2023-06-10T04:48:13;24.80;94.20
22153;DHT22;11242;50.536;12.688;2023-06-10T04:50:39;24.60;92.00
22153;DHT22;11242;50.536;12.688;2023-06-10T04:53:05;25.00;91.40
22153;DHT22;11242;50.536;12.688;2023-06-10T04:55:34;25.50;91.10
22153;DHT22;11242;50.536;12.688;2023-06-10T04:58:00;25.50;89.90
22153;DHT22;11242;50.536;12.688;2023-06-10T05:00:28;26.60;87.30
22153;DHT22;11242;50.536;12.688;2023-06-10T05:02:54;25.90;86.40
22153;DHT22;11242;50.536;12.688;2023-06-10T05:05:21;26.10;82.30
22153;DHT22;11242;50.536;12.688;2023-06-10T05:07:47;27.10;80.60
22153;DHT22;11242;50.536;12.688;2023-06-10T05:10:12;27.80;75.10
22153;DHT22;11242;50.536;12.688;2023-06-10T05:12:38;27.10;74.20
22153;DHT22;11242;50.536;12.688;2023-06-10T05:15:06;26.80;73.60
22153;DHT22;11242;50.536;12.688;2023-06-10T05:17:31;26.20;76.70
22153;DHT22;11242;50.536;12.688;2023-06-10T05:19:57;26.40;74.80
22153;DHT22;11242;50.536;12.688;2023-06-10T05:22:23;26.90;75.70
22153;DHT22;11242;50.536;12.688;2023-06-10T05:24:53;27.90;72.10
22153;DHT22;11242;50.536;12.688;2023-06-10T05:27:19;27.60;72.40
22153;DHT22;11242;50.536;12.688;2023-06-10T05:29:44;28.10;70.50
22153;DHT22;11242;50.536;12.688;2023-06-10T05:32:11;28.80;69.90
22153;DHT22;11242;50.536;12.688;2023-06-10T05:34:37;29.10;69.30
22153;DHT22;11242;50.536;12.688;2023-06-10T05:37:02;29.30;66.80
22153;DHT22;11242;50.536;12.688;2023-06-10T05:39:28;30.10;65.00
22153;DHT22;11242;50.536;12.688;2023-06-10T05:41:54;30.60;62.70
22153;DHT22;11242;50.536;12.688;2023-06-10T05:44:19;30.10;62.90
22153;DHT22;11242;50.536;12.688;2023-06-10T05:46:45;29.60;63.30
22153;DHT22;11242;50.536;12.688;2023-06-10T05:49:11;28.60;67.20
22153;DHT22;11242;50.536;12.688;2023-06-10T05:51:36;29.40;65.70
22153;DHT22;11242;50.536;12.688;2023-06-10T05:54:02;29.30;66.20
22153;DHT22;11242;50.536;12.688;2023-06-10T05:56:28;29.50;64.10
22153;DHT22;11242;50.536;12.688;2023-06-10T05:58:54;29.50;62.30
22153;DHT22;11242;50.536;12.688;2023-06-10T06:01:20;29.50;61.80
22153;DHT22;11242;50.536;12.688;2023-06-10T06:03:45;28.70;62.60
22153;DHT22;11242;50.536;12.688;2023-06-10T06:06:11;29.50;61.50
22153;DHT22;11242;50.536;12.688;2023-06-10T06:08:40;28.80;61.10
22153;DHT22;11242;50.536;12.688;2023-06-10T06:11:05;28.70;63.40
22153;DHT22;11242;50.536;12.688;2023-06-10T06:13:31;28.60;64.30
22153;DHT22;11242;50.536;12.688;2023-06-10T06:15:56;29.60;63.90
22153;DHT22;11242;50.536;12.688;2023-06-10T06:18:22;30.90;59.80
22153;DHT22;11242;50.536;12.688;2023-06-10T06:20:48;30.90;60.10
22153;DHT22;11242;50.536;12.688;2023-06-10T06:23:13;32.10;56.70
22153;DHT22;11242;50.536;12.688;2023-06-10T06:25:39;31.10;56.20
22153;DHT22;11242;50.536;12.688;2023-06-10T06:28:09;30.50;57.50
22153;DHT22;11242;50.536;12.688;2023-06-10T06:30:35;30.50;57.30
22153;DHT22;11242;50.536;12.688;2023-06-10T06:33:01;29.20;60.50
22153;DHT22;11242;50.536;12.688;2023-06-10T06:35:27;29.90;59.00
22153;DHT22;11242;50.536;12.688;2023-06-10T06:37:53;31.60;55.90
22153;DHT22;11242;50.536;12.688;2023-06-10T06:40:24;32.70;54.00
22153;DHT22;11242;50.536;12.688;2023-06-10T06:42:50;33.40;53.20
22153;DHT22;11242;50.536;12.688;2023-06-10T06:45:34;34.20;50.40
22153;DHT22;11242;50.536;12.688;2023-06-10T06:47:59;31.50;54.00
22153;DHT22;11242;50.536;12.688;2023-06-10T06:50:28;30.80;55.20
22153;DHT22;11242;50.536;12.688;2023-06-10T06:52:54;31.40;55.30
22153;DHT22;11242;50.536;12.688;2023-06-10T06:55:20;30.70;55.00
22153;DHT22;11242;50.536;12.688;2023-06-10T06:57:45;29.50;57.90
22153;DHT22;11242;50.536;12.688;2023-06-10T07:00:12;30.00;57.50
22153;DHT22;11242;50.536;12.688;2023-06-10T07:02:38;30.60;55.90
22153;DHT22;11242;50.536;12.688;2023-06-10T07:05:04;30.30;58.10
22153;DHT22;11242;50.536;12.688;2023-06-10T07:07:30;31.80;56.50
22153;DHT22;11242;50.536;12.688;2023-06-10T07:09:56;32.70;54.00
22153;DHT22;11242;50.536;12.688;2023-06-10T07:12:22;33.10;53.10
22153;DHT22;11242;50.536;12.688;2023-06-10T07:14:50;33.80;53.40
22153;DHT22;11242;50.536;12.688;2023-06-10T07:17:16;34.60;50.20
22153;DHT22;11242;50.536;12.688;2023-06-10T07:19:43;35.10;49.50
22153;DHT22;11242;50.536;12.688;2023-06-10T07:22:09;35.40;49.30
22153;DHT22;11242;50.536;12.688;2023-06-10T07:24:35;34.70;48.20
22153;DHT22;11242;50.536;12.688;2023-06-10T07:27:00;31.80;50.80
22153;DHT22;11242;50.536;12.688;2023-06-10T07:29:26;30.30;54.10
22153;DHT22;11242;50.536;12.688;2023-06-10T07:31:51;30.50;54.30
22153;DHT22;11242;50.536;12.688;2023-06-10T07:34:18;31.00;53.70
22153;DHT22;11242;50.536;12.688;2023-06-10T07:36:44;32.00;51.10
22153;DHT22;11242;50.536;12.688;2023-06-10T07:39:10;33.20;51.70
22153;DHT22;11242;50.536;12.688;2023-06-10T07:41:35;33.70;49.70
22153;DHT22;11242;50.536;12.688;2023-06-10T07:44:01;34.90;48.40
22153;DHT22;11242;50.536;12.688;2023-06-10T07:46:28;34.10;48.70
22153;DHT22;11242;50.536;12.688;2023-06-10T07:48:54;33.60;48.40
22153;DHT22;11242;50.536;12.688;2023-06-10T07:51:20;31.60;51.30
22153;DHT22;11242;50.536;12.688;2023-06-10T07:53:46;31.40;51.20
22153;DHT22;11242;50.536;12.688;2023-06-10T07:56:12;31.10;52.10
22153;DHT22;11242;50.536;12.688;2023-06-10T07:58:41;31.20;52.40
22153;DHT22;11242;50.536;12.688;2023-06-10T08:01:06;31.80;52.00
22153;DHT22;11242;50.536;12.688;2023-06-10T08:03:32;33.80;50.10
22153;DHT22;11242;50.536;12.688;2023-06-10T08:05:58;33.80;47.80
22153;DHT22;11242;50.536;12.688;2023-06-10T08:08:24;33.40;48.10
22153;DHT22;11242;50.536;12.688;2023-06-10T08:10:49;32.50;49.80
22153;DHT22;11242;50.536;12.688;2023-06-10T08:13:16;31.10;50.70
22153;DHT22;11242;50.536;12.688;2023-06-10T08:15:42;32.10;50.70
22153;DHT22;11242;50.536;12.688;2023-06-10T08:18:07;31.40;51.70
22153;DHT22;11242;50.536;12.688;2023-06-10T08:20:33;30.40;51.90
22153;DHT22;11242;50.536;12.688;2023-06-10T08:22:59;29.30;55.40
22153;DHT22;11242;50.536;12.688;2023-06-10T08:25:24;29.40;54.40
22153;DHT22;11242;50.536;12.688;2023-06-10T08:27:50;28.70;55.90
22153;DHT22;11242;50.536;12.688;2023-06-10T08:30:17;29.40;55.10
22153;DHT22;11242;50.536;12.688;2023-06-10T08:32:46;28.70;55.00
22153;DHT22;11242;50.536;12.688;2023-06-10T08:35:12;26.70;59.60
22153;DHT22;11242;50.536;12.688;2023-06-10T08:37:37;26.00;61.10
22153;DHT22;11242;50.536;12.688;2023-06-10T08:40:04;25.90;62.30
22153;DHT22;11242;50.536;12.688;2023-06-10T08:42:37;26.80;61.10
22153;DHT22;11242;50.536;12.688;2023-06-10T08:45:07;27.20;60.10
22153;DHT22;11242;50.536;12.688;2023-06-10T08:47:38;26.50;61.40
22153;DHT22;11242;50.536;12.688;2023-06-10T08:50:05;27.50;60.70
22153;DHT22;11242;50.536;12.688;2023-06-10T08:52:36;27.50;60.60
22153;DHT22;11242;50.536;12.688;2023-06-10T08:57:34;26.00;64.20
22153;DHT22;11242;50.536;12.688;2023-06-10T09:00:01;26.30;64.70
22153;DHT22;11242;50.536;12.688;2023-06-10T09:02:31;26.50;64.30
22153;DHT22;11242;50.536;12.688;2023-06-10T09:04:57;26.90;62.50
22153;DHT22;11242;50.536;12.688;2023-06-10T09:07:23;26.20;64.10
22153;DHT22;11242;50.536;12.688;2023-06-10T09:09:50;25.70;65.00
22153;DHT22;11242;50.536;12.688;2023-06-10T09:12:19;25.50;66.10
22153;DHT22;11242;50.536;12.688;2023-06-10T09:14:45;25.40;67.80
22153;DHT22;11242;50.536;12.688;2023-06-10T09:17:11;25.90;67.70
22153;DHT22;11242;50.536;12.688;2023-06-10T09:19:38;26.00;66.60
22153;DHT22;11242;50.536;12.688;2023-06-10T09:22:04;26.20;66.40
22153;DHT22;11242;50.536;12.688;2023-06-10T09:24:30;24.90;68.90
22153;DHT22;11242;50.536;12.688;2023-06-10T09:27:03;24.10;71.50
22153;DHT22;11242;50.536;12.688;2023-06-10T09:29:29;23.70;73.10
22153;DHT22;11242;50.536;12.688;2023-06-10T09:31:55;23.70;74.30
22153;DHT22;11242;50.536;12.688;2023-06-10T09:34:25;23.80;75.20
22153;DHT22;11242;50.536;12.688;2023-06-10T09:36:51;23.10;77.30
22153;DHT22;11242;50.536;12.688;2023-06-10T09:39:18;22.80;80.70
22153;DHT22;11242;50.536;12.688;2023-06-10T09:41:45;22.70;81.90
22153;DHT22;11242;50.536;12.688;2023-06-10T09:44:19;23.00;81.90
22153;DHT22;11242;50.536;12.688;2023-06-10T09:46:46;23.40;81.00
22153;DHT22;11242;50.536;12.688;2023-06-10T09:49:12;24.20;79.00
22153;DHT22;11242;50.536;12.688;2023-06-10T09:51:47;24.30;77.70
22153;DHT22;11242;50.536;12.688;2023-06-10T09:54:13;23.90;78.40
22153;DHT22;11242;50.536;12.688;2023-06-10T10:00:27;23.70;79.80
22153;DHT22;11242;50.536;12.688;2023-06-10T10:02:53;24.70;78.70
22153;DHT22;11242;50.536;12.688;2023-06-10T10:05:22;25.60;76.20
22153;DHT22;11242;50.536;12.688;2023-06-10T10:07:48;25.40;74.30
22153;DHT22;11242;50.536;12.688;2023-06-10T10:10:15;24.80;74.60
22153;DHT22;11242;50.536;12.688;2023-06-10T10:12:42;24.40;77.20
22153;DHT22;11242;50.536;12.688;2023-06-10T10:15:09;23.30;82.60
22153;DHT22;11242;50.536;12.688;2023-06-10T10:17:40;23.00;86.70
22153;DHT22;11242;50.536;12.688;2023-06-10T10:20:08;23.00;89.20
22153;DHT22;11242;50.536;12.688;2023-06-10T10:22:38;23.30;90.40
22153;DHT22;11242;50.536;12.688;2023-06-10T10:25:13;23.50;87.50
22153;DHT22;11242;50.536;12.688;2023-06-10T10:27:50;24.00;86.50
22153;DHT22;11242;50.536;12.688;2023-06-10T10:30:17;24.70;83.20
22153;DHT22;11242;50.536;12.688;2023-06-10T10:33:03;24.80;82.70
22153;DHT22;11242;50.536;12.688;2023-06-10T10:35:31;24.50;83.60
22153;DHT22;11242;50.536;12.688;2023-06-10T10:37:58;23.90;87.90
22153;DHT22;11242;50.536;12.688;2023-06-10T10:40:24;23.90;88.70
22153;DHT22;11242;50.536;12.688;2023-06-10T10:42:51;23.70;89.30
22153;DHT22;11242;50.536;12.688;2023-06-10T10:45:17;23.50;91.20
22153;DHT22;11242;50.536;12.688;2023-06-10T10:47:48;23.50;92.20
22153;DHT22;11242;50.536;12.688;2023-06-10T10:50:18;23.90;92.40
22153;DHT22;11242;50.536;12.688;2023-06-10T10:55:24;22.40;99.90
22153;DHT22;11242;50.536;12.688;2023-06-10T10:58:12;21.10;99.90
22153;DHT22;11242;50.536;12.688;2023-06-10T11:00:44;19.30;99.90
22153;DHT22;11242;50.536;12.688;2023-06-10T11:03:16;18.40;99.90
22153;DHT22;11242;50.536;12.688;2023-06-10T11:05:43;18.00;99.90
22153;DHT22;11242;50.536;12.688;2023-06-10T11:08:13;18.00;99.90
22153;DHT22;11242;50.536;12.688;2023-06-10T11:10:51;18.00;99.90
22153;DHT22;11242;50.536;12.688;2023-06-10T11:13:22;18.00;99.90
22153;DHT22;11242;50.536;12.688;2023-06-10T11:15:49;18.10;99.90
22153;DHT22;11242;50.536;12.688;2023-06-10T11:18:35;18.00;99.90
22153;DHT22;11242;50.536;12.688;2023-06-10T11:21:06;18.10;99.90
22153;DHT22;11242;50.536;12.688;2023-06-10T11:23:33;18.30;99.90
22153;DHT22;11242;50.536;12.688;2023-06-10T11:31:38;19.10;99.90
22153;DHT22;11242;50.536;12.688;2023-06-10T11:34:05;19.40;99.90
22153;DHT22;11242;50.536;12.688;2023-06-10T11:36:34;19.90;99.90
22153;DHT22;11242;50.536;12.688;2023-06-10T11:39:05;20.10;99.90
22153;DHT22;11242;50.536;12.688;2023-06-10T11:41:32;20.30;99.90
22153;DHT22;11242;50.536;12.688;2023-06-10T11:44:20;20.60;99.90
22153;DHT22;11242;50.536;12.688;2023-06-10T11:46:47;20.70;99.90
22153;DHT22;11242;50.536;12.688;2023-06-10T11:49:13;21.00;99.90
22153;DHT22;11242;50.536;12.688;2023-06-10T11:51:40;21.20;99.90
22153;DHT22;11242;50.536;12.688;2023-06-10T11:54:09;21.20;99.90
22153;DHT22;11242;50.536;12.688;2023-06-10T11:56:35;21.40;99.90
22153;DHT22;11242;50.536;12.688;2023-06-10T11:59:03;21.80;99.90
22153;DHT22;11242;50.536;12.688;2023-06-10T12:01:37;22.10;99.90
22153;DHT22;11242;50.536;12.688;2023-06-10T12:04:14;22.20;99.90
22153;DHT22;11242;50.536;12.688;2023-06-10T12:06:51;22.30;99.90
22153;DHT22;11242;50.536;12.688;2023-06-10T12:09:23;22.50;99.90
22153;DHT22;11242;50.536;12.688;2023-06-10T12:14:53;22.60;99.90
22153;DHT22;11242;50.536;12.688;2023-06-10T12:19:59;23.00;99.90
22153;DHT22;11242;50.536;12.688;2023-06-10T12:22:25;23.20;99.90
22153;DHT22;11242;50.536;12.688;2023-06-10T12:24:59;23.10;99.90
22153;DHT22;11242;50.536;12.688;2023-06-10T12:27:25;23.10;99.90
22153;DHT22;11242;50.536;12.688;2023-06-10T12:29:51;23.40;99.90
22153;DHT22;11242;50.536;12.688;2023-06-10T12:32:21;23.50;99.90
22153;DHT22;11242;50.536;12.688;2023-06-10T12:35:03;23.40;99.90
22153;DHT22;11242;50.536;12.688;2023-06-10T12:37:29;23.10;99.90
22153;DHT22;11242;50.536;12.688;2023-06-10T12:39:55;23.10;99.90
22153;DHT22;11242;50.536;12.688;2023-06-10T12:42:25;23.00;99.90
22153;DHT22;11242;50.536;12.688;2023-06-10T12:44:53;23.00;99.90
22153;DHT22;11242;50.536;12.688;2023-06-10T12:47:19;23.30;99.90
22153;DHT22;11242;50.536;12.688;2023-06-10T12:49:45;23.50;99.90
22153;DHT22;11242;50.536;12.688;2023-06-10T12:52:10;23.40;99.90
22153;DHT22;11242;50.536;12.688;2023-06-10T12:54:36;23.40;99.90
22153;DHT22;11242;50.536;12.688;2023-06-10T12:57:02;23.40;99.90
22153;DHT22;11242;50.536;12.688;2023-06-10T12:59:28;23.50;99.90
22153;DHT22;11242;50.536;12.688;2023-06-10T13:01:54;23.60;99.90
22153;DHT22;11242;50.536;12.688;2023-06-10T13:04:20;23.50;99.90
22153;DHT22;11242;50.536;12.688;2023-06-10T13:06:47;23.50;99.90
22153;DHT22;11242;50.536;12.688;2023-06-10T13:09:16;23.60;99.70
22153;DHT22;11242;50.536;12.688;2023-06-10T13:11:42;23.40;99.00
22153;DHT22;11242;50.536;12.688;2023-06-10T13:14:08;23.40;99.80
22153;DHT22;11242;50.536;12.688;2023-06-10T13:16:35;23.70;99.90
22153;DHT22;11242;50.536;12.688;2023-06-10T13:19:03;23.80;97.20
22153;DHT22;11242;50.536;12.688;2023-06-10T13:21:31;23.50;96.70
22153;DHT22;11242;50.536;12.688;2023-06-10T13:23:57;23.20;97.80
22153;DHT22;11242;50.536;12.688;2023-06-10T13:26:23;23.30;98.40
22153;DHT22;11242;50.536;12.688;2023-06-10T13:28:48;23.50;98.20
22153;DHT22;11242;50.536;12.688;2023-06-10T13:31:14;23.70;97.10
22153;DHT22;11242;50.536;12.688;2023-06-10T13:33:40;23.70;97.30
22153;DHT22;11242;50.536;12.688;2023-06-10T13:36:06;23.70;96.60
22153;DHT22;11242;50.536;12.688;2023-06-10T13:38:31;23.70;96.40
22153;DHT22;11242;50.536;12.688;2023-06-10T13:40:57;23.90;95.90
22153;DHT22;11242;50.536;12.688;2023-06-10T13:43:23;23.70;96.50
22153;DHT22;11242;50.536;12.688;2023-06-10T13:45:48;23.70;96.60
22153;DHT22;11242;50.536;12.688;2023-06-10T13:48:14;24.00;96.70
22153;DHT22;11242;50.536;12.688;2023-06-10T13:50:42;23.90;95.90
22153;DHT22;11242;50.536;12.688;2023-06-10T13:53:11;23.80;95.60
22153;DHT22;11242;50.536;12.688;2023-06-10T13:55:37;24.00;94.70
22153;DHT22;11242;50.536;12.688;2023-06-10T13:58:02;24.00;94.50
22153;DHT22;11242;50.536;12.688;2023-06-10T14:00:28;24.00;92.60
22153;DHT22;11242;50.536;12.688;2023-06-10T14:02:54;24.10;93.80
22153;DHT22;11242;50.536;12.688;2023-06-10T14:05:19;24.40;92.50
22153;DHT22;11242;50.536;12.688;2023-06-10T14:07:45;24.50;90.90
22153;DHT22;11242;50.536;12.688;2023-06-10T14:10:11;24.30;91.10
22153;DHT22;11242;50.536;12.688;2023-06-10T14:12:36;24.10;91.60
22153;DHT22;11242;50.536;12.688;2023-06-10T14:15:02;24.20;91.20
22153;DHT22;11242;50.536;12.688;2023-06-10T14:17:28;24.10;91.80
22153;DHT22;11242;50.536;12.688;2023-06-10T14:19:54;24.30;91.70
22153;DHT22;11242;50.536;12.688;2023-06-10T14:22:19;24.60;92.40
22153;DHT22;11242;50.536;12.688;2023-06-10T14:24:48;24.70;91.10
22153;DHT22;11242;50.536;12.688;2023-06-10T14:27:13;24.90;91.20
22153;DHT22;11242;50.536;12.688;2023-06-10T14:29:39;24.90;91.00
22153;DHT22;11242;50.536;12.688;2023-06-10T14:32:06;25.40;90.30
22153;DHT22;11242;50.536;12.688;2023-06-10T14:34:32;25.10;90.00
22153;DHT22;11242;50.536;12.688;2023-06-10T14:36:59;25.10;90.50
22153;DHT22;11242;50.536;12.688;2023-06-10T14:39:25;24.90;90.10
22153;DHT22;11242;50.536;12.688;2023-06-10T14:41:51;24.70;89.20
22153;DHT22;11242;50.536;12.688;2023-06-10T14:44:20;24.60;90.20
22153;DHT22;11242;50.536;12.688;2023-06-10T14:46:48;24.60;91.30
22153;DHT22;11242;50.536;12.688;2023-06-10T14:49:14;24.50;91.10
22153;DHT22;11242;50.536;12.688;2023-06-10T14:51:40;24.60;90.50
22153;DHT22;11242;50.536;12.688;2023-06-10T14:54:05;24.30;91.10
22153;DHT22;11242;50.536;12.688;2023-06-10T14:56:31;24.00;91.20
22153;DHT22;11242;50.536;12.688;2023-06-10T14:58:56;24.00;92.00
22153;DHT22;11242;50.536;12.688;2023-06-10T15:01:22;23.80;92.10
22153;DHT22;11242;50.536;12.688;2023-06-10T15:03:47;23.90;93.00
22153;DHT22;11242;50.536;12.688;2023-06-10T15:06:13;24.00;92.20
22153;DHT22;11242;50.536;12.688;2023-06-10T15:08:42;24.30;92.70
22153;DHT22;11242;50.536;12.688;2023-06-10T15:11:08;24.70;92.40
22153;DHT22;11242;50.536;12.688;2023-06-10T15:13:33;25.00;91.90
22153;DHT22;11242;50.536;12.688;2023-06-10T15:15:59;25.10;90.50
22153;DHT22;11242;50.536;12.688;2023-06-10T15:18:25;24.70;90.30
22153;DHT22;11242;50.536;12.688;2023-06-10T15:20:50;24.50;90.00
22153;DHT22;11242;50.536;12.688;2023-06-10T15:23:16;24.30;90.00
22153;DHT22;11242;50.536;12.688;2023-06-10T15:25:42;24.30;88.90
22153;DHT22;11242;50.536;12.688;2023-06-10T15:28:08;24.30;86.90
22153;DHT22;11242;50.536;12.688;2023-06-10T15:30:33;24.50;87.60
22153;DHT22;11242;50.536;12.688;2023-06-10T15:32:59;24.90;86.80
22153;DHT22;11242;50.536;12.688;2023-06-10T15:35:25;25.10;84.00
22153;DHT22;11242;50.536;12.688;2023-06-10T15:37:52;25.00;85.70
22153;DHT22;11242;50.536;12.688;2023-06-10T15:40:17;25.20;83.80
22153;DHT22;11242;50.536;12.688;2023-06-10T15:42:43;25.00;84.10